NZ-0014 weather

Big Bay Beach strip
Big Bay, West Coast Region, New Zealand

Public forecast

Using degrees Celsius for public forecast. Weather courtesy of forecast.io.

Closest aviation weather report (METAR) to Big Bay Beach strip

Closest report is Christchurch International Airport, 197.1 nm (365.1 km) ENE. Retrieved 2020/05/27 13:00 UTC (27 seconds ago):

NZCH 271300Z AUTO 26002KT 2700 R02/0800U R20/0700D BCFG OVC005/// 00/00 Q1024

Closest aviation forecast (TAF) to Big Bay Beach strip

Closest forecast is Queenstown International Airport, 51.1 nm (94.6 km) SSE. Retrieved 2020/05/27 12:16 UTC (44 minutes ago):

TAF NZQN 271104Z 2712/2806 04005KT 9999 SKC PROB40 TEMPO 2715/2721 BKN012